createdAt,value
2019-01-23T00:02:01.353Z,1.53
2019-01-23T00:04:28.368Z,1.73
2019-01-23T00:06:56.442Z,1.30
2019-01-23T00:09:23.490Z,1.63
2019-01-23T00:11:50.543Z,0.50
2019-01-23T00:14:17.587Z,1.50
2019-01-23T00:16:44.635Z,1.40
2019-01-23T00:19:11.688Z,1.37
2019-01-23T00:21:38.732Z,1.30
2019-01-23T00:24:05.780Z,0.73
2019-01-23T00:26:32.833Z,0.87
2019-01-23T00:28:59.878Z,0.50
2019-01-23T00:31:26.926Z,0.63
2019-01-23T00:33:53.979Z,0.50
2019-01-23T00:36:21.329Z,0.57
2019-01-23T00:38:48.379Z,0.57
2019-01-23T00:41:15.433Z,0.73
2019-01-23T00:43:42.781Z,1.90
2019-01-23T00:46:09.831Z,2.73
2019-01-23T00:48:36.884Z,1.90
2019-01-23T00:51:04.133Z,3.07
2019-01-23T00:53:31.186Z,2.50
2019-01-23T00:55:58.230Z,2.93
2019-01-23T00:58:25.688Z,2.80
2019-01-23T01:00:53.253Z,3.13
2019-01-23T01:03:20.298Z,3.63
2019-01-23T01:05:47.755Z,3.70
2019-01-23T01:08:14.804Z,1.53
2019-01-23T01:10:41.858Z,2.80
2019-01-23T01:13:09.256Z,1.80
2019-01-23T01:15:36.256Z,1.07
2019-01-23T01:18:03.309Z,3.23
2019-01-23T01:20:31.787Z,3.13
2019-01-23T01:22:58.839Z,3.00
2019-01-23T01:25:25.883Z,1.07
2019-01-23T01:27:52.931Z,3.53
2019-01-23T01:30:21.521Z,0.90
2019-01-23T01:32:48.566Z,2.27
2019-01-23T01:35:15.614Z,0.83
2019-01-23T01:37:42.666Z,3.03
2019-01-23T01:40:12.499Z,2.00
2019-01-23T01:42:36.758Z,2.53
2019-01-23T01:45:05.047Z,3.57
2019-01-23T01:47:33.005Z,0.50
2019-01-23T01:50:00.054Z,2.23
2019-01-23T01:52:27.108Z,3.63
2019-01-23T01:54:54.151Z,3.07
2019-01-23T01:57:21.202Z,4.47
2019-01-23T01:59:48.454Z,3.40
2019-01-23T02:02:15.403Z,2.00
2019-01-23T02:04:42.448Z,2.97
2019-01-23T02:07:09.497Z,1.43
2019-01-23T02:09:36.549Z,3.40
2019-01-23T02:12:03.595Z,3.50
2019-01-23T02:14:30.642Z,1.83
2019-01-23T02:16:57.695Z,3.43
2019-01-23T02:19:24.740Z,3.77
2019-01-23T02:21:52.918Z,1.40
2019-01-23T02:24:22.219Z,3.97
2019-01-23T02:27:07.308Z,1.93
2019-01-23T02:29:51.303Z,4.63
2019-01-23T02:34:59.765Z,3.90
2019-01-23T02:37:26.820Z,3.97
2019-01-23T02:39:53.867Z,5.63
2019-01-23T02:42:20.868Z,3.83
2019-01-23T02:44:47.858Z,4.00
2019-01-23T02:47:14.908Z,4.93
2019-01-23T02:49:41.961Z,4.00
2019-01-23T02:52:09.002Z,1.80
2019-01-23T02:54:36.051Z,3.87
2019-01-23T02:57:03.109Z,3.80
2019-01-23T02:59:30.150Z,3.37
2019-01-23T03:01:57.196Z,2.77
2019-01-23T03:04:24.251Z,3.63
2019-01-23T03:06:51.945Z,3.07
2019-01-23T03:09:18.958Z,3.90
2019-01-23T03:11:46.011Z,2.90
2019-01-23T03:14:13.053Z,3.63
2019-01-23T03:16:40.106Z,3.50
2019-01-23T03:19:07.154Z,4.53
2019-01-23T03:21:34.208Z,3.90
2019-01-23T03:24:01.251Z,3.80
2019-01-23T03:26:28.302Z,4.20
2019-01-23T03:28:55.344Z,3.93
2019-01-23T03:31:22.394Z,2.80
2019-01-23T03:33:49.387Z,4.60
2019-01-23T03:36:16.340Z,2.17
2019-01-23T03:38:43.332Z,4.70
2019-01-23T03:41:10.899Z,4.30
2019-01-23T03:43:37.942Z,4.17
2019-01-23T03:46:04.991Z,2.40
2019-01-23T03:48:31.937Z,3.10
2019-01-23T03:50:58.986Z,3.33
2019-01-23T03:53:26.038Z,3.93
2019-01-23T03:55:53.082Z,4.47
2019-01-23T03:58:20.132Z,3.37
2019-01-23T04:00:47.184Z,3.87
2019-01-23T04:03:14.242Z,4.30
2019-01-23T04:05:43.023Z,4.33
2019-01-23T04:08:10.066Z,2.83
2019-01-23T04:10:37.114Z,3.97
2019-01-23T04:13:04.168Z,4.33
2019-01-23T04:15:31.323Z,4.37
2019-01-23T04:17:58.360Z,2.57
2019-01-23T04:20:25.410Z,2.60
2019-01-23T04:22:52.462Z,3.33
2019-01-23T04:25:19.506Z,3.90
2019-01-23T04:27:46.554Z,5.00
2019-01-23T04:30:16.524Z,2.40
2019-01-23T04:32:43.523Z,2.97
2019-01-23T04:35:10.984Z,1.60
2019-01-23T04:37:38.026Z,3.63
2019-01-23T04:40:05.078Z,3.40
2019-01-23T04:42:34.278Z,3.90
2019-01-23T04:45:01.322Z,3.63
2019-01-23T04:47:28.370Z,4.50
2019-01-23T04:49:57.158Z,1.03
2019-01-23T04:52:29.839Z,1.37
2019-01-23T04:54:56.889Z,5.97
2019-01-23T04:57:23.942Z,2.80
2019-01-23T04:59:50.984Z,4.30
2019-01-23T05:02:18.035Z,4.93
2019-01-23T05:04:45.027Z,4.27
2019-01-23T05:10:09.899Z,4.73
2019-01-23T05:12:36.955Z,3.37
2019-01-23T05:15:04.305Z,4.07
2019-01-23T05:17:31.351Z,4.70
2019-01-23T05:19:58.405Z,3.47
2019-01-23T05:22:25.448Z,4.97
2019-01-23T05:24:52.497Z,4.37
2019-01-23T05:27:19.551Z,6.70
2019-01-23T05:29:54.663Z,7.70
2019-01-23T05:32:14.365Z,4.20
2019-01-23T05:34:41.412Z,7.00
2019-01-23T05:37:08.462Z,6.63
2019-01-23T05:39:36.239Z,3.27
2019-01-23T05:42:03.272Z,6.43
2019-01-23T05:44:30.322Z,6.67
2019-01-23T05:46:57.335Z,6.03
2019-01-23T05:49:24.312Z,6.63
2019-01-23T05:51:51.569Z,8.90
2019-01-23T05:54:18.614Z,5.33
2019-01-23T05:56:45.668Z,2.70
2019-01-23T05:59:14.761Z,5.20
2019-01-23T06:01:41.814Z,5.03
2019-01-23T06:04:08.856Z,4.17
2019-01-23T06:06:36.929Z,20.73
2019-01-23T06:09:05.525Z,92.17
2019-01-23T06:11:32.566Z,4.80
2019-01-23T06:13:59.611Z,5.50
2019-01-23T06:16:26.659Z,11.03
2019-01-23T06:18:53.716Z,1.63
2019-01-23T06:21:20.759Z,7.53
2019-01-23T06:23:47.811Z,10.40
2019-01-23T06:26:14.864Z,2.97
2019-01-23T06:28:57.573Z,4.60
2019-01-23T06:31:24.619Z,5.27
2019-01-23T06:33:51.671Z,6.07
2019-01-23T06:36:20.972Z,6.40
2019-01-23T06:38:47.918Z,4.87
2019-01-23T06:41:15.780Z,5.90
2019-01-23T06:43:42.828Z,3.87
2019-01-23T06:46:09.882Z,11.20
2019-01-23T06:48:36.925Z,6.60
2019-01-23T06:51:03.978Z,24.10
2019-01-23T06:53:31.027Z,13.67
2019-01-23T06:55:58.178Z,10.07
2019-01-23T06:58:25.128Z,3.63
2019-01-23T07:00:52.180Z,9.47
2019-01-23T07:03:19.216Z,8.00
2019-01-23T07:05:46.264Z,5.73
2019-01-23T07:08:13.316Z,9.70
2019-01-23T07:10:40.362Z,1.63
2019-01-23T07:13:07.409Z,0.50
2019-01-23T07:15:34.463Z,1.00
2019-01-23T07:18:01.507Z,2.33
2019-01-23T07:20:28.559Z,3.00
2019-01-23T07:22:55.546Z,2.13
2019-01-23T07:25:22.550Z,1.23
2019-01-23T07:27:49.604Z,1.30
2019-01-23T07:30:16.851Z,1.33
2019-01-23T07:32:44.413Z,0.57
2019-01-23T07:35:11.460Z,0.67
2019-01-23T07:37:40.560Z,1.07
2019-01-23T07:40:09.512Z,0.77
2019-01-23T07:42:37.009Z,2.77
2019-01-23T07:45:04.160Z,4.20
2019-01-23T07:47:31.207Z,5.57
2019-01-23T07:49:58.616Z,6.00
2019-01-23T07:52:25.898Z,5.53
2019-01-23T07:54:52.870Z,7.73
2019-01-23T07:57:20.021Z,6.13
2019-01-23T07:59:47.065Z,8.03
2019-01-23T08:02:14.113Z,6.97
2019-01-23T08:04:42.089Z,8.80
2019-01-23T08:07:09.132Z,9.07
2019-01-23T08:09:36.284Z,9.63
2019-01-23T08:12:03.283Z,9.20
2019-01-23T08:14:32.326Z,9.07
2019-01-23T08:16:59.382Z,9.97
2019-01-23T08:19:26.630Z,10.90
2019-01-23T08:21:56.141Z,10.30
2019-01-23T08:24:23.183Z,11.30
2019-01-23T08:26:50.232Z,11.38
2019-01-23T08:29:17.308Z,10.60
2019-01-23T08:31:44.338Z,16.42
2019-01-23T08:34:11.439Z,25.00
2019-01-23T08:36:38.533Z,23.00
2019-01-23T08:39:05.583Z,12.70
2019-01-23T08:41:32.625Z,22.90
2019-01-23T08:44:00.499Z,15.30
2019-01-23T08:46:27.543Z,13.83
2019-01-23T08:48:54.543Z,15.57
2019-01-23T08:51:21.643Z,11.80
2019-01-23T08:53:48.642Z,14.47
2019-01-23T08:56:15.735Z,11.57
2019-01-23T08:58:42.941Z,27.77
2019-01-23T09:01:10.043Z,26.90
2019-01-23T09:03:37.291Z,28.77
2019-01-23T09:06:04.349Z,26.77
2019-01-23T09:08:37.623Z,39.70
2019-01-23T09:10:59.264Z,38.30
2019-01-23T09:13:26.407Z,35.67
2019-01-23T09:15:53.460Z,21.20
2019-01-23T09:18:24.323Z,25.77
2019-01-23T09:21:06.053Z,23.83
2019-01-23T09:24:02.783Z,12.03
2019-01-23T09:26:45.638Z,14.27
2019-01-23T09:29:13.122Z,11.93
2019-01-23T09:31:40.324Z,11.73
2019-01-23T09:34:30.067Z,12.70
2019-01-23T09:36:58.729Z,10.73
2019-01-23T09:40:00.695Z,13.83
2019-01-23T09:42:49.787Z,15.90
2019-01-23T09:45:42.155Z,9.00
2019-01-23T09:48:13.151Z,10.73
2019-01-23T09:50:44.464Z,10.83
2019-01-23T09:53:12.888Z,9.50
2019-01-23T09:55:42.792Z,12.10
2019-01-23T09:58:09.810Z,9.33
2019-01-23T10:00:36.956Z,9.93
2019-01-23T10:03:05.384Z,8.43
2019-01-23T10:05:33.442Z,7.70
2019-01-23T10:08:06.093Z,7.87
2019-01-23T10:10:33.277Z,6.00
2019-01-23T10:13:00.487Z,7.90
2019-01-23T10:15:28.499Z,8.07
2019-01-23T10:17:55.752Z,7.47
2019-01-23T10:20:22.805Z,8.07
2019-01-23T10:22:49.853Z,7.77
2019-01-23T10:25:17.007Z,7.13
2019-01-23T10:27:46.640Z,8.27
2019-01-23T10:30:13.867Z,8.47
2019-01-23T10:32:41.389Z,8.30
2019-01-23T10:35:08.415Z,7.07
2019-01-23T10:37:35.620Z,7.90
2019-01-23T10:40:02.771Z,7.60
2019-01-23T10:42:30.029Z,8.63
2019-01-23T10:44:57.023Z,7.20
2019-01-23T10:47:24.024Z,7.57
2019-01-23T10:49:51.088Z,7.43
2019-01-23T10:52:18.180Z,8.13
2019-01-23T10:54:45.473Z,8.10
2019-01-23T10:57:12.424Z,8.53
2019-01-23T10:59:52.919Z,11.00
2019-01-23T11:02:38.358Z,7.47
2019-01-23T11:08:00.250Z,16.47
2019-01-23T11:10:46.478Z,7.77
2019-01-23T11:13:13.457Z,12.07
2019-01-23T11:15:40.710Z,16.23
2019-01-23T11:18:07.774Z,8.50
2019-01-23T11:20:34.815Z,10.90
2019-01-23T11:23:01.862Z,10.47
2019-01-23T11:25:28.813Z,11.63
2019-01-23T11:27:55.854Z,7.13
2019-01-23T11:30:23.207Z,10.07
2019-01-23T11:32:50.160Z,11.20
2019-01-23T11:35:17.205Z,11.77
2019-01-23T11:37:44.408Z,22.40
2019-01-23T11:40:19.900Z,12.10
2019-01-23T11:42:46.947Z,17.30
2019-01-23T11:45:14.003Z,19.83
2019-01-23T11:47:41.155Z,9.40
2019-01-23T11:50:08.197Z,22.87
2019-01-23T11:52:35.244Z,12.17
2019-01-23T11:55:02.299Z,12.03
2019-01-23T12:00:27.320Z,10.17
2019-01-23T12:02:54.365Z,9.93
2019-01-23T12:05:21.412Z,11.97
2019-01-23T12:07:48.467Z,12.47
2019-01-23T12:10:16.440Z,13.40
2019-01-23T12:12:43.506Z,14.53
2019-01-23T12:15:11.551Z,14.37
2019-01-23T12:17:38.606Z,9.33
2019-01-23T12:20:05.650Z,11.10
2019-01-23T12:22:32.698Z,10.60
2019-01-23T12:24:59.751Z,10.10
2019-01-23T12:27:26.795Z,8.33
2019-01-23T12:29:53.844Z,8.20
2019-01-23T12:32:22.018Z,13.87
2019-01-23T12:34:49.067Z,17.03
2019-01-23T12:37:16.377Z,15.67
2019-01-23T12:39:43.370Z,9.53
2019-01-23T12:42:10.426Z,17.33
2019-01-23T12:44:37.474Z,18.40
2019-01-23T12:47:04.515Z,12.50
2019-01-23T12:49:31.568Z,11.20
2019-01-23T12:51:58.611Z,8.03
2019-01-23T12:54:25.662Z,8.43
2019-01-23T12:56:52.716Z,5.93
2019-01-23T12:59:41.416Z,8.00
2019-01-23T13:02:28.722Z,11.60
2019-01-23T13:05:22.606Z,8.40
2019-01-23T13:07:49.615Z,12.27
2019-01-23T13:10:16.668Z,7.93
2019-01-23T13:12:43.819Z,8.10
2019-01-23T13:15:10.869Z,12.90
2019-01-23T13:17:37.912Z,49.10
2019-01-23T13:20:05.166Z,32.77
2019-01-23T13:22:33.598Z,29.60
2019-01-23T13:24:59.394Z,23.23
2019-01-23T13:27:26.663Z,13.73
2019-01-23T13:29:53.666Z,12.07
2019-01-23T13:32:20.719Z,15.67
2019-01-23T13:34:48.023Z,9.03
2019-01-23T13:37:15.021Z,11.57
2019-01-23T13:39:42.065Z,14.10
2019-01-23T13:42:09.113Z,12.13
2019-01-23T13:44:37.089Z,8.63
2019-01-23T13:47:06.082Z,8.83
2019-01-23T13:49:33.127Z,7.77
2019-01-23T13:52:18.882Z,6.30
2019-01-23T13:55:05.805Z,9.20
2019-01-23T13:57:50.475Z,8.90
2019-01-23T14:00:40.579Z,8.63
2019-01-23T14:03:07.638Z,7.10
2019-01-23T14:05:34.676Z,7.83
2019-01-23T14:08:02.340Z,8.33
2019-01-23T14:10:29.447Z,7.90
2019-01-23T14:12:56.440Z,9.03
2019-01-23T14:15:23.400Z,5.93
2019-01-23T14:17:50.436Z,8.50
2019-01-23T14:20:17.796Z,4.27
2019-01-23T14:23:04.448Z,9.03
2019-01-23T14:25:53.152Z,7.90
2019-01-23T14:28:44.606Z,8.33
2019-01-23T14:31:11.620Z,7.30
2019-01-23T14:33:38.668Z,6.97
2019-01-23T14:36:09.412Z,7.43
2019-01-23T14:38:36.452Z,6.73
2019-01-23T14:41:03.711Z,3.60
2019-01-23T14:43:30.703Z,6.70
2019-01-23T14:45:57.802Z,6.40
2019-01-23T14:48:40.468Z,5.23
2019-01-23T14:51:07.464Z,6.83
2019-01-23T14:53:34.530Z,6.90
2019-01-23T14:56:18.765Z,6.70
2019-01-23T14:59:04.680Z,6.93
2019-01-23T15:01:53.158Z,5.87
2019-01-23T15:04:20.153Z,10.63
2019-01-23T15:06:47.209Z,9.13
2019-01-23T15:09:32.258Z,9.17
2019-01-23T15:12:19.897Z,18.53
2019-01-23T15:15:05.919Z,17.43
2019-01-23T15:17:55.417Z,7.03
2019-01-23T15:20:45.076Z,5.00
2019-01-23T15:23:36.190Z,6.53
2019-01-23T15:26:15.301Z,5.47
2019-01-23T15:29:01.350Z,6.80
2019-01-23T15:31:47.564Z,3.30
2019-01-23T15:34:35.304Z,6.00
2019-01-23T15:37:06.265Z,6.57
2019-01-23T15:39:33.313Z,2.73
2019-01-23T15:42:00.365Z,4.33
2019-01-23T15:44:27.410Z,2.53
2019-01-23T15:46:54.459Z,2.60
2019-01-23T15:49:21.511Z,4.60
2019-01-23T15:51:48.452Z,4.67
2019-01-23T15:54:15.505Z,2.57
2019-01-23T15:56:56.281Z,5.73
2019-01-23T15:59:45.541Z,5.00
2019-01-23T16:02:12.595Z,4.93
2019-01-23T16:04:39.639Z,6.23
2019-01-23T16:07:07.097Z,11.40
2019-01-23T16:09:34.145Z,7.27
2019-01-23T16:12:01.199Z,8.47
2019-01-23T16:14:28.192Z,6.93
2019-01-23T16:16:55.192Z,5.27
2019-01-23T16:19:23.046Z,1.83
2019-01-23T16:21:49.285Z,3.60
2019-01-23T16:24:16.339Z,7.40
2019-01-23T16:26:43.281Z,2.80
2019-01-23T16:29:10.334Z,4.83
2019-01-23T16:31:37.376Z,5.57
2019-01-23T16:34:04.424Z,6.03
2019-01-23T16:36:31.478Z,4.40
2019-01-23T16:38:58.523Z,3.87
2019-01-23T16:41:25.572Z,3.93
2019-01-23T16:43:52.624Z,5.57
2019-01-23T16:46:19.667Z,6.03
2019-01-23T16:48:47.477Z,7.07
2019-01-23T16:51:14.482Z,5.33
2019-01-23T16:53:41.375Z,2.63
2019-01-23T16:56:08.484Z,2.97
2019-01-23T16:58:35.531Z,6.20
2019-01-23T17:01:02.471Z,5.23
2019-01-23T17:03:29.622Z,7.67
2019-01-23T17:05:56.771Z,5.93
2019-01-23T17:08:23.829Z,3.40
2019-01-23T17:10:50.871Z,6.57
2019-01-23T17:13:17.824Z,4.17
2019-01-23T17:15:45.176Z,6.47
2019-01-23T17:18:12.240Z,7.33
2019-01-23T17:20:39.274Z,3.97
2019-01-23T17:23:06.320Z,6.50
2019-01-23T17:25:33.365Z,4.47
2019-01-23T17:28:01.748Z,5.13
2019-01-23T17:30:29.214Z,5.73
2019-01-23T17:32:56.356Z,8.50
2019-01-23T17:35:26.751Z,13.93
2019-01-23T17:37:53.836Z,2.80
2019-01-23T17:40:20.900Z,6.50
2019-01-23T17:42:50.694Z,5.87
2019-01-23T17:45:39.443Z,3.33
2019-01-23T17:48:23.747Z,6.37
2019-01-23T17:50:52.257Z,5.97
2019-01-23T17:53:18.013Z,3.67
2019-01-23T17:55:45.063Z,3.60
2019-01-23T17:58:13.239Z,2.93
2019-01-23T18:00:41.261Z,2.73
2019-01-23T18:03:08.300Z,6.03
2019-01-23T18:05:35.398Z,4.43
2019-01-23T18:08:02.452Z,4.77
2019-01-23T18:10:29.495Z,5.90
2019-01-23T18:12:57.879Z,4.27
2019-01-23T18:15:31.893Z,5.60
2019-01-23T18:17:58.933Z,6.40
2019-01-23T18:20:26.905Z,3.50
2019-01-23T18:22:53.957Z,8.07
2019-01-23T18:25:21.002Z,5.43
2019-01-23T18:27:48.052Z,5.20
2019-01-23T18:30:15.107Z,2.37
2019-01-23T18:32:42.146Z,2.07
2019-01-23T18:35:10.021Z,5.17
2019-01-23T18:37:37.063Z,3.80
2019-01-23T18:40:04.521Z,2.43
2019-01-23T18:42:37.617Z,5.13
2019-01-23T18:45:14.598Z,2.27
2019-01-23T18:47:45.944Z,4.93
2019-01-23T18:50:16.063Z,5.63
2019-01-23T18:52:43.115Z,4.20
2019-01-23T18:55:10.158Z,4.47
2019-01-23T18:57:37.111Z,2.20
2019-01-23T19:00:04.155Z,2.80
2019-01-23T19:02:31.106Z,6.83
2019-01-23T19:04:58.149Z,2.50
2019-01-23T19:07:25.199Z,4.27
2019-01-23T19:09:52.252Z,4.63
2019-01-23T19:12:19.246Z,2.77
2019-01-23T19:14:46.184Z,3.13
2019-01-23T19:17:13.188Z,3.37
2019-01-23T19:19:40.263Z,5.47
2019-01-23T19:22:07.400Z,1.43
2019-01-23T19:24:34.546Z,2.73
2019-01-23T19:27:03.690Z,2.57
2019-01-23T19:29:30.995Z,4.00
2019-01-23T19:31:57.992Z,3.50
2019-01-23T19:34:24.992Z,2.73
2019-01-23T19:36:52.142Z,4.40
2019-01-23T19:39:19.183Z,4.73
2019-01-23T19:41:46.335Z,0.57
2019-01-23T19:44:13.384Z,1.47
2019-01-23T19:46:40.537Z,4.17
2019-01-23T19:49:07.521Z,2.83
2019-01-23T19:51:37.366Z,2.23
2019-01-23T19:54:04.904Z,2.47
2019-01-23T19:56:31.902Z,3.67
2019-01-23T19:58:58.957Z,2.00
2019-01-23T20:01:25.942Z,1.97
2019-01-23T20:03:53.258Z,1.77
2019-01-23T20:06:20.303Z,3.83
2019-01-23T20:08:47.303Z,3.33
2019-01-23T20:11:14.405Z,2.80
2019-01-23T20:13:41.449Z,4.07
2019-01-23T20:16:08.439Z,3.53
2019-01-23T20:18:35.398Z,4.47
2019-01-23T20:21:02.394Z,5.03
2019-01-23T20:23:29.435Z,4.07
2019-01-23T20:25:56.485Z,2.40
2019-01-23T20:28:23.547Z,3.63
2019-01-23T20:30:50.581Z,3.50
2019-01-23T20:33:17.533Z,1.60
2019-01-23T20:35:44.576Z,2.70
2019-01-23T20:38:11.624Z,3.97
2019-01-23T20:40:38.682Z,1.50
2019-01-23T20:43:06.541Z,2.63
2019-01-23T20:45:33.863Z,3.10
2019-01-23T20:48:02.508Z,4.90
2019-01-23T20:50:29.631Z,3.03
2019-01-23T20:52:56.680Z,2.83
2019-01-23T20:55:24.139Z,3.47
2019-01-23T20:57:51.652Z,3.43
2019-01-23T21:00:18.749Z,3.17
2019-01-23T21:02:46.194Z,3.27
2019-01-23T21:08:11.024Z,2.33
2019-01-23T21:10:38.075Z,2.63
2019-01-23T21:13:05.127Z,3.67
2019-01-23T21:15:32.168Z,3.23
2019-01-23T21:17:59.168Z,3.20
2019-01-23T21:20:26.162Z,2.10
2019-01-23T21:22:53.115Z,5.03
2019-01-23T21:25:20.158Z,3.70
2019-01-23T21:27:47.723Z,3.13
2019-01-23T21:30:15.688Z,5.03
2019-01-23T21:32:42.737Z,1.90
2019-01-23T21:35:12.555Z,1.80
2019-01-23T21:37:39.599Z,3.60
2019-01-23T21:40:06.647Z,2.73
2019-01-23T21:42:33.700Z,3.63
2019-01-23T21:45:01.261Z,3.07
2019-01-23T21:47:28.328Z,3.67
2019-01-23T21:49:55.460Z,2.70
2019-01-23T21:52:23.426Z,3.00
2019-01-23T21:54:50.478Z,4.97
2019-01-23T21:57:17.528Z,1.43
2019-01-23T21:59:44.680Z,1.67
2019-01-23T22:02:11.620Z,2.53
2019-01-23T22:04:38.674Z,1.80
2019-01-23T22:07:07.252Z,2.70
2019-01-23T22:09:35.223Z,3.07
2019-01-23T22:12:02.475Z,3.03
2019-01-23T22:14:31.273Z,3.77
2019-01-23T22:16:58.314Z,3.00
2019-01-23T22:19:25.363Z,4.70
2019-01-23T22:21:56.107Z,5.10
2019-01-23T22:24:25.842Z,3.33
2019-01-23T22:26:52.861Z,4.63
2019-01-23T22:29:20.117Z,5.13
2019-01-23T22:31:47.165Z,5.97
2019-01-23T22:34:14.207Z,4.07
2019-01-23T22:36:41.255Z,2.43
2019-01-23T22:39:08.316Z,5.13
2019-01-23T22:41:35.353Z,3.73
2019-01-23T22:44:02.401Z,7.43
2019-01-23T22:46:29.454Z,5.87
2019-01-23T22:48:56.499Z,4.47
2019-01-23T22:51:23.547Z,5.57
2019-01-23T22:53:50.601Z,2.30
2019-01-23T22:56:17.643Z,2.63
2019-01-23T22:58:45.306Z,2.97
2019-01-23T23:01:12.766Z,2.93
2019-01-23T23:03:41.505Z,1.90
2019-01-23T23:06:08.491Z,2.73
2019-01-23T23:08:35.550Z,2.40
2019-01-23T23:11:02.598Z,1.77
2019-01-23T23:13:29.654Z,2.57
2019-01-23T23:15:56.694Z,2.67
2019-01-23T23:18:23.740Z,3.70
2019-01-23T23:20:50.799Z,2.23
2019-01-23T23:23:17.840Z,2.87
2019-01-23T23:25:45.951Z,4.30
2019-01-23T23:28:11.833Z,3.33
2019-01-23T23:30:38.785Z,3.70
2019-01-23T23:33:06.291Z,3.40
2019-01-23T23:35:33.286Z,2.80
2019-01-23T23:38:00.335Z,2.77
2019-01-23T23:40:27.894Z,3.67
2019-01-23T23:42:54.943Z,4.43
2019-01-23T23:45:21.997Z,4.13
2019-01-23T23:47:49.040Z,3.67
2019-01-23T23:50:16.090Z,4.73
2019-01-23T23:52:43.143Z,3.00
2019-01-23T23:55:10.799Z,3.37
2019-01-23T23:57:37.848Z,3.03
